Time;durP1;ratioP1;P1;durP2;ratioP2;P2;SDS_P1;SDS_P2;PMS_P1;PMS_P2;Temp;Humidity;BMP_temperature;BMP_pressure;BME280_temperature;BME280_humidity;BME280_pressure;Samples;Min_cycle;Max_cycle;Signal;HPM_P1;HPM_P2
2023/12/01 00:00:42;;;;;;;27.27;18.87;;;2.20;99.90;;;;;;4972950;28;20195;-31
2023/12/01 00:03:08;;;;;;;29.20;19.87;;;2.30;99.90;;;;;;4974602;28;20180;-30
2023/12/01 00:05:33;;;;;;;28.17;19.47;;;2.30;99.90;;;;;;4987759;28;20295;-33
2023/12/01 00:07:59;;;;;;;25.13;18.50;;;2.30;99.90;;;;;;4956590;28;20193;-32
2023/12/01 00:10:25;;;;;;;27.60;18.80;;;2.30;99.90;;;;;;4975568;28;20216;-31
2023/12/01 00:12:51;;;;;;;28.03;19.63;;;2.30;99.90;;;;;;4966147;28;20239;-33
2023/12/01 00:15:17;;;;;;;23.83;18.60;;;2.30;99.90;;;;;;4959133;28;20315;-31
2023/12/01 00:17:42;;;;;;;28.30;19.70;;;2.30;99.90;;;;;;4989924;28;20184;-31
2023/12/01 00:20:08;;;;;;;25.27;17.87;;;2.40;99.90;;;;;;4973137;28;20191;-31
2023/12/01 00:22:34;;;;;;;24.50;19.27;;;2.40;99.90;;;;;;4965481;28;20645;-31
2023/12/01 00:25:00;;;;;;;27.17;19.57;;;2.40;99.90;;;;;;4956896;28;20201;-31
2023/12/01 00:27:26;;;;;;;26.23;18.83;;;2.40;99.90;;;;;;4986057;28;20211;-31
2023/12/01 00:29:52;;;;;;;27.83;20.00;;;2.40;99.90;;;;;;4956033;28;20220;-31
2023/12/01 00:32:18;;;;;;;28.83;20.07;;;2.40;99.90;;;;;;4953243;28;20247;-31
2023/12/01 00:34:44;;;;;;;26.17;19.47;;;2.50;99.90;;;;;;4953803;28;20256;-31
2023/12/01 00:37:10;;;;;;;29.00;19.37;;;2.50;99.90;;;;;;4953588;28;20188;-31
2023/12/01 00:39:36;;;;;;;25.43;18.10;;;2.40;99.90;;;;;;4960622;28;20286;-31
2023/12/01 00:42:03;;;;;;;26.43;20.13;;;2.40;99.90;;;;;;4955994;28;20186;-30
2023/12/01 00:44:29;;;;;;;24.77;18.17;;;2.40;99.90;;;;;;4973096;28;20208;-31
2023/12/01 00:46:55;;;;;;;26.43;18.43;;;2.40;99.90;;;;;;4972866;28;20196;-31
2023/12/01 00:49:21;;;;;;;28.57;18.30;;;2.50;99.90;;;;;;4953982;29;20296;-31
2023/12/01 00:51:46;;;;;;;25.90;19.23;;;2.50;99.90;;;;;;4968825;28;20285;-30
2023/12/01 00:54:12;;;;;;;25.20;17.97;;;2.50;99.90;;;;;;4964557;28;20208;-30
2023/12/01 00:56:38;;;;;;;25.67;18.30;;;2.50;99.90;;;;;;4975141;28;20184;-31
2023/12/01 00:59:04;;;;;;;25.80;18.97;;;2.50;99.90;;;;;;4954531;28;20193;-31
2023/12/01 01:01:30;;;;;;;27.40;17.87;;;2.50;99.90;;;;;;4961165;28;20192;-30
2023/12/01 01:03:57;;;;;;;25.73;17.80;;;2.50;99.90;;;;;;4953000;28;20271;-30
2023/12/01 01:06:23;;;;;;;25.40;18.07;;;2.50;99.90;;;;;;4951875;28;20186;-30
2023/12/01 01:08:49;;;;;;;27.87;19.50;;;2.50;99.90;;;;;;4953267;28;20215;-32
2023/12/01 01:11:14;;;;;;;27.37;19.60;;;2.50;99.90;;;;;;4953309;28;20186;-31
2023/12/01 01:13:40;;;;;;;26.00;19.40;;;2.40;99.90;;;;;;4952320;28;20213;-30
2023/12/01 01:16:08;;;;;;;26.60;17.70;;;2.40;99.90;;;;;;4953373;28;20217;-30
2023/12/01 01:18:34;;;;;;;25.17;17.73;;;2.40;99.90;;;;;;4952296;28;20185;-30
2023/12/01 01:20:59;;;;;;;29.10;20.17;;;2.40;99.90;;;;;;4969297;28;20236;-30
2023/12/01 01:23:26;;;;;;;29.20;19.70;;;2.40;99.90;;;;;;4952658;28;20189;-31
2023/12/01 01:25:52;;;;;;;27.30;18.77;;;2.40;99.90;;;;;;4972875;28;20199;-30
2023/12/01 01:28:18;;;;;;;24.50;18.57;;;2.40;99.90;;;;;;4977645;28;20192;-30
2023/12/01 01:30:44;;;;;;;25.87;18.90;;;2.50;99.90;;;;;;4972207;28;20193;-30
2023/12/01 01:33:10;;;;;;;25.53;18.37;;;2.40;99.90;;;;;;4972190;28;20185;-30
2023/12/01 01:35:36;;;;;;;24.90;18.13;;;2.50;99.90;;;;;;4971946;28;20237;-30
2023/12/01 01:38:01;;;;;;;23.00;17.93;;;2.40;99.90;;;;;;4961987;28;20280;-30
2023/12/01 01:40:27;;;;;;;24.33;17.47;;;2.40;99.90;;;;;;4966302;28;20192;-30
2023/12/01 01:42:53;;;;;;;22.47;16.67;;;2.40;99.90;;;;;;4953440;28;20212;-30
2023/12/01 01:45:19;;;;;;;28.20;19.10;;;2.40;99.90;;;;;;4971774;28;20200;-30
2023/12/01 01:47:45;;;;;;;25.03;17.37;;;2.30;99.90;;;;;;4955767;28;20189;-30
2023/12/01 01:50:11;;;;;;;24.17;17.20;;;2.30;99.90;;;;;;4971803;28;20208;-31
2023/12/01 01:52:40;;;;;;;25.67;17.47;;;2.30;99.90;;;;;;4968400;28;20182;-30
2023/12/01 01:55:07;;;;;;;25.97;18.73;;;2.30;99.90;;;;;;4965342;28;20208;-31
2023/12/01 01:57:38;;;;;;;22.53;16.87;;;2.30;99.90;;;;;;4961356;28;20172;-30
2023/12/01 02:00:05;;;;;;;23.77;17.47;;;2.30;99.90;;;;;;4992368;23;20224;-29
2023/12/01 02:02:37;;;;;;;24.53;17.90;;;2.20;99.90;;;;;;4951292;28;20197;-27
2023/12/01 02:05:12;;;;;;;24.93;16.83;;;2.20;99.90;;;;;;4937911;28;20177;-27
2023/12/01 02:07:39;;;;;;;25.90;17.53;;;2.20;99.90;;;;;;4950375;28;20186;-27
2023/12/01 02:10:06;;;;;;;22.30;16.87;;;2.10;99.90;;;;;;4947149;28;20228;-27
2023/12/01 02:12:32;;;;;;;22.93;16.80;;;2.10;99.90;;;;;;4959885;28;20256;-27
2023/12/01 02:14:58;;;;;;;24.33;16.90;;;2.10;99.90;;;;;;4971843;28;20196;-27
2023/12/01 02:17:23;;;;;;;22.50;16.03;;;2.10;99.90;;;;;;4970724;28;20207;-26
2023/12/01 02:19:51;;;;;;;22.07;16.90;;;2.00;99.90;;;;;;4963705;28;20237;-27
2023/12/01 02:22:17;;;;;;;24.50;17.23;;;2.00;99.90;;;;;;4963802;28;20193;-27
2023/12/01 02:24:43;;;;;;;25.97;17.83;;;1.90;99.90;;;;;;4949095;28;20189;-27
2023/12/01 02:27:09;;;;;;;21.87;16.03;;;1.90;99.90;;;;;;4970815;28;20185;-27
2023/12/01 02:29:35;;;;;;;26.07;17.47;;;1.90;99.90;;;;;;4962775;28;20213;-27
2023/12/01 02:32:00;;;;;;;23.97;17.83;;;1.90;99.90;;;;;;4967421;28;20176;-27
2023/12/01 02:34:26;;;;;;;24.47;17.67;;;1.90;99.90;;;;;;4955777;28;20177;-27
2023/12/01 02:36:53;;;;;;;23.27;17.07;;;1.90;99.90;;;;;;4962989;28;20637;-26
2023/12/01 02:39:20;;;;;;;24.43;17.23;;;1.90;99.90;;;;;;4963950;28;20189;-27
2023/12/01 02:41:45;;;;;;;24.93;18.30;;;1.90;99.90;;;;;;4947148;28;20216;-27
2023/12/01 02:44:11;;;;;;;23.17;17.50;;;1.90;99.90;;;;;;4960452;28;20268;-27
2023/12/01 02:46:37;;;;;;;24.73;17.67;;;1.90;99.90;;;;;;4965742;28;20307;-27
2023/12/01 02:49:03;;;;;;;23.83;17.40;;;1.80;99.90;;;;;;4954993;28;20220;-27
2023/12/01 02:51:29;;;;;;;24.27;16.50;;;1.80;99.90;;;;;;4957974;28;20173;-27
2023/12/01 02:53:55;;;;;;;25.53;18.90;;;1.80;99.90;;;;;;4976245;28;20245;-27
2023/12/01 02:56:21;;;;;;;23.47;17.30;;;1.80;99.90;;;;;;4962646;28;20271;-27
2023/12/01 02:58:47;;;;;;;21.50;16.33;;;1.80;99.90;;;;;;4954819;28;20184;-27
2023/12/01 03:01:12;;;;;;;25.60;18.70;;;1.80;99.90;;;;;;4952503;28;20193;-27
2023/12/01 03:03:38;;;;;;;23.90;18.07;;;1.80;99.90;;;;;;4949696;28;20191;-27
2023/12/01 03:06:04;;;;;;;24.47;18.00;;;1.80;99.90;;;;;;4970722;28;20192;-27
2023/12/01 03:08:30;;;;;;;24.43;17.13;;;1.80;99.90;;;;;;4969291;28;20280;-27
2023/12/01 03:10:56;;;;;;;23.73;17.87;;;1.90;99.90;;;;;;4938963;28;20204;-27
2023/12/01 03:13:22;;;;;;;26.30;17.77;;;1.90;99.90;;;;;;4962565;28;20176;-27
2023/12/01 03:15:49;;;;;;;25.57;18.87;;;1.90;99.90;;;;;;4966664;28;20189;-27
2023/12/01 03:18:16;;;;;;;24.27;17.17;;;1.90;99.90;;;;;;4958970;28;20266;-27
2023/12/01 03:20:42;;;;;;;24.33;17.67;;;1.80;99.90;;;;;;4959231;28;20201;-27
2023/12/01 03:23:08;;;;;;;23.67;16.83;;;1.80;99.90;;;;;;4989591;28;20185;-27
2023/12/01 03:25:34;;;;;;;22.87;16.57;;;1.80;99.90;;;;;;4957297;28;20177;-27
2023/12/01 03:28:00;;;;;;;23.87;18.20;;;1.80;99.90;;;;;;4963172;28;20253;-27
2023/12/01 03:30:26;;;;;;;24.40;17.90;;;1.80;99.90;;;;;;4967728;28;20212;-27
2023/12/01 03:32:53;;;;;;;27.57;19.13;;;1.80;99.90;;;;;;4966413;28;20328;-27
2023/12/01 03:35:21;;;;;;;27.30;19.30;;;1.80;99.90;;;;;;4966592;28;20189;-27
2023/12/01 03:37:47;;;;;;;25.93;17.90;;;1.80;99.90;;;;;;4966543;28;20653;-27
2023/12/01 03:40:14;;;;;;;23.17;17.17;;;1.80;99.90;;;;;;4963664;28;20211;-27
2023/12/01 03:42:48;;;;;;;24.53;18.73;;;1.80;99.90;;;;;;4939337;29;20193;-27
2023/12/01 03:45:15;;;;;;;26.47;18.77;;;1.80;99.90;;;;;;4956833;28;20192;-27
2023/12/01 03:47:48;;;;;;;27.97;19.57;;;1.80;99.90;;;;;;4950129;28;20316;-27
2023/12/01 03:50:15;;;;;;;25.13;17.83;;;1.70;99.90;;;;;;4971833;28;20220;-26
2023/12/01 03:52:45;;;;;;;22.97;17.30;;;1.70;99.90;;;;;;4963815;28;20192;-27
2023/12/01 03:55:12;;;;;;;23.30;16.97;;;1.70;99.90;;;;;;4972680;28;20189;-27
2023/12/01 03:57:39;;;;;;;20.37;15.17;;;1.70;99.90;;;;;;4958674;28;20183;-27
2023/12/01 04:00:13;;;;;;;24.20;17.13;;;1.70;99.90;;;;;;4956802;28;20223;-27
2023/12/01 04:02:44;;;;;;;23.77;18.10;;;1.70;99.90;;;;;;4960905;28;20177;-27
2023/12/01 04:05:17;;;;;;;28.60;17.77;;;1.70;99.90;;;;;;4973792;28;20191;-27
2023/12/01 04:07:45;;;;;;;21.87;16.97;;;1.70;99.90;;;;;;4969403;28;20229;-27
2023/12/01 04:10:11;;;;;;;23.23;16.87;;;1.70;99.90;;;;;;4956486;28;20217;-27
2023/12/01 04:12:47;;;;;;;23.93;17.03;;;1.70;99.90;;;;;;4960118;28;20204;-27
2023/12/01 04:15:19;;;;;;;24.20;17.23;;;1.70;99.90;;;;;;4946620;28;20212;-27
2023/12/01 04:17:47;;;;;;;24.23;17.53;;;1.70;99.90;;;;;;4938661;29;20189;-27
2023/12/01 04:20:21;;;;;;;23.50;18.07;;;1.70;99.90;;;;;;4948577;28;20256;-27
2023/12/01 04:22:51;;;;;;;21.63;16.37;;;1.70;99.90;;;;;;4974207;28;20188;-27
2023/12/01 04:25:17;;;;;;;22.53;16.83;;;1.70;99.90;;;;;;4960815;28;20185;-27
2023/12/01 04:27:45;;;;;;;23.50;17.17;;;1.70;99.90;;;;;;4967431;28;20292;-27
2023/12/01 04:30:14;;;;;;;21.10;15.93;;;1.80;99.90;;;;;;4962911;28;20224;-27
2023/12/01 04:32:41;;;;;;;29.77;20.17;;;1.80;99.90;;;;;;4973701;28;20188;-27
2023/12/01 04:35:07;;;;;;;34.40;23.40;;;1.80;99.90;;;;;;4966060;28;20197;-27
2023/12/01 04:37:33;;;;;;;28.70;20.13;;;1.70;99.90;;;;;;4960364;28;20694;-26
2023/12/01 04:39:59;;;;;;;26.40;19.30;;;1.70;99.90;;;;;;4946204;28;20300;-27
2023/12/01 04:42:24;;;;;;;22.57;17.67;;;1.70;99.90;;;;;;4954337;28;20187;-27
2023/12/01 04:44:50;;;;;;;21.03;16.60;;;1.70;99.90;;;;;;4960909;28;20172;-27
2023/12/01 04:47:16;;;;;;;23.37;17.70;;;1.70;99.90;;;;;;4970699;28;20212;-27
2023/12/01 04:49:42;;;;;;;24.23;18.20;;;1.70;99.90;;;;;;4959732;28;20319;-27
2023/12/01 04:52:08;;;;;;;24.93;17.77;;;1.70;99.90;;;;;;4964712;28;20244;-27
2023/12/01 04:54:36;;;;;;;25.33;20.37;;;1.70;99.90;;;;;;4964943;28;20208;-27
2023/12/01 04:57:03;;;;;;;24.23;18.73;;;1.70;99.90;;;;;;4970377;28;20195;-27
2023/12/01 04:59:29;;;;;;;23.97;16.93;;;1.70;99.90;;;;;;4965441;28;20215;-27
2023/12/01 05:01:57;;;;;;;19.80;15.90;;;1.70;99.90;;;;;;4959178;28;20191;-27
2023/12/01 05:04:24;;;;;;;22.73;17.43;;;1.70;99.90;;;;;;4961415;28;20189;-27
2023/12/01 05:06:50;;;;;;;24.53;17.17;;;1.70;99.90;;;;;;4984912;28;20280;-27
2023/12/01 05:09:21;;;;;;;25.63;17.80;;;1.70;99.90;;;;;;4960785;28;20213;-27
2023/12/01 05:11:47;;;;;;;24.13;16.73;;;1.60;99.90;;;;;;4961407;28;20649;-27
2023/12/01 05:14:13;;;;;;;22.33;16.97;;;1.70;99.90;;;;;;4964214;28;20209;-27
2023/12/01 05:16:41;;;;;;;23.93;17.30;;;1.60;99.90;;;;;;4950482;28;20173;-27
2023/12/01 05:19:07;;;;;;;21.37;16.70;;;1.60;99.90;;;;;;4956994;28;20300;-27
2023/12/01 05:21:34;;;;;;;20.27;15.43;;;1.60;99.90;;;;;;4964929;28;20191;-27
2023/12/01 05:24:01;;;;;;;21.00;16.40;;;1.60;99.90;;;;;;4956698;28;20181;-27
2023/12/01 05:26:28;;;;;;;23.60;17.10;;;1.60;99.90;;;;;;4969270;28;20185;-27
2023/12/01 05:28:55;;;;;;;21.60;17.07;;;1.50;99.90;;;;;;4964683;28;20201;-27
2023/12/01 05:31:21;;;;;;;20.33;16.00;;;1.50;99.90;;;;;;4969945;28;20212;-27
2023/12/01 05:33:49;;;;;;;22.20;16.23;;;1.50;99.90;;;;;;4964538;28;20208;-27
2023/12/01 05:36:16;;;;;;;20.70;15.47;;;1.50;99.90;;;;;;4961761;28;20250;-28
2023/12/01 05:38:44;;;;;;;18.23;14.77;;;1.50;99.90;;;;;;4967239;28;20186;-27
2023/12/01 05:41:10;;;;;;;20.83;16.40;;;1.50;99.90;;;;;;4954157;28;20193;-27
2023/12/01 05:43:39;;;;;;;22.97;16.60;;;1.50;99.90;;;;;;4962224;28;20180;-27
2023/12/01 05:46:06;;;;;;;20.97;16.33;;;1.50;99.90;;;;;;4947000;28;20173;-27
2023/12/01 05:48:33;;;;;;;20.40;16.23;;;1.50;99.90;;;;;;4968353;28;20177;-27
2023/12/01 05:50:59;;;;;;;20.77;15.53;;;1.50;99.90;;;;;;4968691;28;20216;-27
2023/12/01 05:53:25;;;;;;;21.30;15.63;;;1.50;99.90;;;;;;4971825;28;20227;-27
2023/12/01 05:55:51;;;;;;;21.27;16.70;;;1.50;99.90;;;;;;4970415;28;20193;-27
2023/12/01 05:58:17;;;;;;;20.40;15.40;;;1.50;99.90;;;;;;4955381;28;20189;-27
2023/12/01 06:00:44;;;;;;;20.97;16.07;;;1.50;99.90;;;;;;4965207;28;20267;-27
2023/12/01 06:03:15;;;;;;;20.33;15.60;;;1.50;99.90;;;;;;4962286;28;20653;-27
2023/12/01 06:05:41;;;;;;;19.83;15.43;;;1.50;99.90;;;;;;4950261;28;20272;-27
2023/12/01 06:08:10;;;;;;;17.37;14.23;;;1.50;99.90;;;;;;4939664;29;20327;-27
2023/12/01 06:10:37;;;;;;;18.37;14.50;;;1.50;99.90;;;;;;4957078;28;20220;-26
2023/12/01 06:13:04;;;;;;;17.73;13.80;;;1.50;99.90;;;;;;4944373;28;20173;-27
2023/12/01 06:15:30;;;;;;;19.13;14.33;;;1.50;99.90;;;;;;4946699;28;20185;-26
2023/12/01 06:17:58;;;;;;;17.33;13.67;;;1.50;99.90;;;;;;4963528;28;20180;-26
2023/12/01 06:20:24;;;;;;;15.07;12.57;;;1.50;99.90;;;;;;4970752;28;20266;-27
2023/12/01 06:22:59;;;;;;;17.30;13.80;;;1.50;99.90;;;;;;4955472;28;20215;-26
2023/12/01 06:25:27;;;;;;;17.30;13.40;;;1.50;99.90;;;;;;4954686;28;20188;-26
2023/12/01 06:28:11;;;;;;;15.00;12.50;;;1.50;99.90;;;;;;4948690;29;20189;-26
2023/12/01 06:30:37;;;;;;;16.13;13.30;;;1.50;99.90;;;;;;4962987;28;20238;-26
2023/12/01 06:33:05;;;;;;;15.77;12.63;;;1.50;99.90;;;;;;4955199;28;20191;-26
2023/12/01 06:35:31;;;;;;;17.70;13.53;;;1.50;99.90;;;;;;4969150;28;20188;-27
2023/12/01 06:37:57;;;;;;;16.70;13.63;;;1.50;99.90;;;;;;4966372;28;20180;-26
2023/12/01 06:40:22;;;;;;;18.27;14.33;;;1.50;99.90;;;;;;4959112;28;20216;-26
2023/12/01 06:42:53;;;;;;;16.47;12.87;;;1.50;99.90;;;;;;4941997;28;20188;-26
2023/12/01 06:45:26;;;;;;;18.73;14.47;;;1.50;99.90;;;;;;4966995;28;20184;-26
2023/12/01 06:47:53;;;;;;;23.77;16.93;;;1.50;99.90;;;;;;4960348;28;20184;-26
2023/12/01 06:50:22;;;;;;;22.93;18.30;;;1.50;99.90;;;;;;4952704;28;20216;-27
2023/12/01 06:52:50;;;;;;;23.63;17.43;;;1.50;99.90;;;;;;4971572;28;20244;-26
2023/12/01 06:55:16;;;;;;;21.93;16.70;;;1.50;99.90;;;;;;4946905;28;20195;-26
2023/12/01 06:57:44;;;;;;;23.40;17.70;;;1.40;99.90;;;;;;4962345;28;20180;-26
2023/12/01 07:02:57;;;;;;;21.97;16.77;;;1.40;99.90;;;;;;4964221;28;20216;-26
2023/12/01 07:05:25;;;;;;;20.57;15.23;;;1.50;99.90;;;;;;4960824;28;20185;-26
2023/12/01 07:07:58;;;;;;;22.47;16.00;;;1.40;99.90;;;;;;4961880;28;20193;-27
2023/12/01 07:10:25;;;;;;;23.63;17.73;;;1.50;99.90;;;;;;4953954;28;20211;-26
2023/12/01 07:12:55;;;;;;;22.97;16.70;;;1.40;99.90;;;;;;4971001;28;20191;-26
2023/12/01 07:15:23;;;;;;;21.63;16.10;;;1.40;99.90;;;;;;4972009;28;20191;-27
2023/12/01 07:17:52;;;;;;;21.03;16.23;;;1.40;99.90;;;;;;4965765;28;20181;-26
2023/12/01 07:20:18;;;;;;;24.17;17.53;;;1.40;99.90;;;;;;4946310;28;20213;-26
2023/12/01 07:22:46;;;;;;;22.77;17.07;;;1.40;99.90;;;;;;4949327;28;20275;-26
2023/12/01 07:25:21;;;;;;;25.53;17.87;;;1.40;99.90;;;;;;4941321;28;20188;-27
2023/12/01 07:28:06;;;;;;;25.43;17.10;;;1.40;99.90;;;;;;4959507;28;20189;-27
2023/12/01 07:30:32;;;;;;;25.63;17.77;;;1.40;99.90;;;;;;4959887;28;20295;-27
2023/12/01 07:33:00;;;;;;;25.60;18.37;;;1.40;99.90;;;;;;4958967;28;20187;-27
2023/12/01 07:35:26;;;;;;;25.50;18.37;;;1.40;99.90;;;;;;4961043;28;20185;-27
2023/12/01 07:37:52;;;;;;;23.67;17.80;;;1.40;99.90;;;;;;4965615;28;20184;-27
2023/12/01 07:40:19;;;;;;;26.40;17.93;;;1.40;99.90;;;;;;4949294;28;20296;-26
2023/12/01 07:42:46;;;;;;;26.90;18.10;;;1.50;99.90;;;;;;4949369;28;20193;-27
2023/12/01 07:45:17;;;;;;;25.07;18.10;;;1.50;99.90;;;;;;4947778;28;20184;-27
2023/12/01 07:47:47;;;;;;;24.00;17.00;;;1.50;99.90;;;;;;4950844;28;20263;-26
2023/12/01 07:50:14;;;;;;;23.73;16.47;;;1.60;99.90;;;;;;4945671;28;20209;-26
2023/12/01 07:52:44;;;;;;;23.93;16.70;;;1.60;99.90;;;;;;4961949;28;20177;-26
2023/12/01 07:55:10;;;;;;;22.70;16.50;;;1.60;99.90;;;;;;4961281;28;20188;-26
2023/12/01 07:57:36;;;;;;;20.67;15.67;;;1.70;99.90;;;;;;4960988;28;20206;-27
2023/12/01 08:00:05;;;;;;;20.93;15.93;;;1.70;99.90;;;;;;5043444;23;20221;-32
2023/12/01 08:02:32;;;;;;;21.70;16.17;;;1.70;99.90;;;;;;5052877;28;20174;-31
2023/12/01 08:04:58;;;;;;;23.63;16.90;;;1.70;99.90;;;;;;5018481;28;20265;-32
2023/12/01 08:07:24;;;;;;;21.60;16.03;;;1.70;99.90;;;;;;5034196;28;20335;-31
2023/12/01 08:09:50;;;;;;;24.63;17.57;;;1.70;99.90;;;;;;5012381;28;20301;-31
2023/12/01 08:12:19;;;;;;;31.63;22.27;;;1.70;99.90;;;;;;4999691;28;20250;-32
2023/12/01 08:14:45;;;;;;;28.70;20.50;;;1.80;99.90;;;;;;4986782;28;20273;-32
2023/12/01 08:17:11;;;;;;;27.73;19.93;;;1.80;99.90;;;;;;5030206;28;20245;-32
2023/12/01 08:19:36;;;;;;;28.00;20.33;;;1.80;99.90;;;;;;5008232;28;20694;-32
2023/12/01 08:22:04;;;;;;;40.80;26.07;;;1.80;99.90;;;;;;5015999;28;20274;-31
2023/12/01 08:24:29;;;;;;;27.27;18.80;;;1.80;99.90;;;;;;5033190;28;20191;-31
2023/12/01 08:26:55;;;;;;;23.20;17.07;;;1.80;99.90;;;;;;5007534;28;20190;-32
2023/12/01 08:29:21;;;;;;;21.60;15.90;;;1.80;99.90;;;;;;4997689;28;20215;-31
2023/12/01 08:31:47;;;;;;;19.67;15.50;;;1.80;99.90;;;;;;4998586;28;20273;-31
2023/12/01 08:34:12;;;;;;;22.17;16.77;;;1.80;99.90;;;;;;5015168;28;20183;-31
2023/12/01 08:36:38;;;;;;;24.77;17.77;;;1.80;99.90;;;;;;5007769;28;20175;-32
2023/12/01 08:39:04;;;;;;;28.90;21.27;;;1.80;99.90;;;;;;4991206;28;20232;-30
2023/12/01 08:41:30;;;;;;;29.47;21.13;;;1.80;99.90;;;;;;4990924;28;20210;-32
2023/12/01 08:43:56;;;;;;;25.10;19.70;;;1.80;99.90;;;;;;5015229;28;20182;-30
2023/12/01 08:46:22;;;;;;;24.10;18.33;;;1.90;99.90;;;;;;5033090;28;20187;-32
2023/12/01 08:48:48;;;;;;;23.67;17.30;;;1.90;99.90;;;;;;4999146;28;20209;-31
2023/12/01 08:51:14;;;;;;;21.40;16.50;;;1.90;99.90;;;;;;5008903;28;20206;-31
2023/12/01 08:53:39;;;;;;;20.90;16.30;;;1.90;99.90;;;;;;5012963;28;20183;-31
2023/12/01 08:56:07;;;;;;;20.67;16.27;;;1.90;99.90;;;;;;4998161;28;20269;-31
2023/12/01 08:58:33;;;;;;;21.97;16.47;;;2.00;99.90;;;;;;5010986;28;20183;-31
2023/12/01 09:00:59;;;;;;;20.63;15.97;;;2.00;99.90;;;;;;5005470;28;20215;-31
2023/12/01 09:03:25;;;;;;;20.63;15.30;;;2.10;99.90;;;;;;4996346;28;20187;-31
2023/12/01 09:05:51;;;;;;;19.60;15.63;;;2.10;99.90;;;;;;4988777;28;20183;-31
2023/12/01 09:08:17;;;;;;;20.77;16.23;;;2.10;99.90;;;;;;4995501;28;20183;-31
2023/12/01 09:10:43;;;;;;;20.93;16.57;;;2.10;99.90;;;;;;5011777;28;20207;-32
2023/12/01 09:13:11;;;;;;;18.70;15.23;;;2.20;99.90;;;;;;5009320;28;20189;-31
2023/12/01 09:15:38;;;;;;;22.60;17.97;;;2.20;99.90;;;;;;4999046;28;20183;-31
2023/12/01 09:18:04;;;;;;;23.47;18.47;;;2.20;99.90;;;;;;4995033;28;20179;-31
2023/12/01 09:20:30;;;;;;;23.77;18.63;;;2.30;99.90;;;;;;5020741;28;20256;-31
2023/12/01 09:22:56;;;;;;;22.43;18.80;;;2.20;99.90;;;;;;4987121;28;20199;-32
2023/12/01 09:25:22;;;;;;;19.60;16.97;;;2.30;99.90;;;;;;5012719;28;20198;-31
2023/12/01 09:27:48;;;;;;;20.37;16.40;;;2.30;99.90;;;;;;5014633;28;20209;-31
2023/12/01 09:30:16;;;;;;;20.57;16.40;;;2.30;99.90;;;;;;5014637;28;20237;-31
2023/12/01 09:32:45;;;;;;;21.03;15.57;;;2.30;99.90;;;;;;4992661;28;20186;-31
2023/12/01 09:35:11;;;;;;;17.23;13.83;;;2.30;99.90;;;;;;5009979;28;20179;-31
2023/12/01 09:37:37;;;;;;;17.83;14.40;;;2.20;99.90;;;;;;4993135;28;20233;-31
2023/12/01 09:40:06;;;;;;;18.77;15.83;;;2.20;99.90;;;;;;4996562;28;20226;-31
2023/12/01 09:42:33;;;;;;;19.43;16.50;;;2.20;99.90;;;;;;5014198;28;20186;-32
2023/12/01 09:45:02;;;;;;;18.90;14.83;;;2.20;99.90;;;;;;5023504;28;20179;-31
2023/12/01 09:47:33;;;;;;;19.40;15.20;;;2.20;99.90;;;;;;5014103;28;20194;-30
2023/12/01 09:50:00;;;;;;;17.30;14.70;;;2.20;99.90;;;;;;4994337;28;20211;-31
2023/12/01 09:52:27;;;;;;;18.70;15.90;;;2.20;99.90;;;;;;4992340;28;20202;-31
2023/12/01 09:54:53;;;;;;;19.43;15.23;;;2.20;99.90;;;;;;4988249;28;20270;-31
2023/12/01 09:57:21;;;;;;;17.50;14.33;;;2.20;99.90;;;;;;4994983;28;20273;-30
2023/12/01 09:59:49;;;;;;;18.27;14.63;;;2.20;99.90;;;;;;5014229;28;20238;-31
2023/12/01 10:02:16;;;;;;;18.17;14.40;;;2.20;99.90;;;;;;5014265;28;20206;-32
2023/12/01 10:04:48;;;;;;;20.53;16.10;;;2.30;99.90;;;;;;4997379;28;20222;-31
2023/12/01 10:07:14;;;;;;;18.23;14.77;;;2.30;99.90;;;;;;5013846;28;20178;-31
2023/12/01 10:09:42;;;;;;;20.47;15.77;;;2.40;99.90;;;;;;4994318;28;20216;-31
2023/12/01 10:12:10;;;;;;;22.90;17.23;;;2.40;99.90;;;;;;4997477;28;20175;-29
2023/12/01 10:14:38;;;;;;;22.37;15.63;;;2.40;99.90;;;;;;5012892;28;20203;-28
2023/12/01 10:17:05;;;;;;;20.17;15.83;;;2.50;99.90;;;;;;4997269;28;20182;-29
2023/12/01 10:19:48;;;;;;;20.37;16.70;;;2.50;99.90;;;;;;5013643;28;20229;-30
2023/12/01 10:22:19;;;;;;;20.97;16.57;;;2.50;99.90;;;;;;4993284;28;20191;-29
2023/12/01 10:24:56;;;;;;;23.50;17.70;;;2.50;99.90;;;;;;5005351;28;20178;-30
2023/12/01 10:27:22;;;;;;;20.87;15.53;;;2.50;99.90;;;;;;4997301;28;20182;-29
2023/12/01 10:29:48;;;;;;;21.00;15.50;;;2.50;99.90;;;;;;5013834;28;20206;-29
2023/12/01 10:32:18;;;;;;;18.90;14.90;;;2.50;99.90;;;;;;4980684;28;20270;-29
2023/12/01 10:34:49;;;;;;;17.90;14.20;;;2.50;99.90;;;;;;5009778;28;20206;-29
2023/12/01 10:37:16;;;;;;;19.03;14.60;;;2.50;99.90;;;;;;4996803;28;20182;-29
2023/12/01 10:39:43;;;;;;;17.00;14.10;;;2.50;99.90;;;;;;5008927;28;20250;-34
2023/12/01 10:42:10;;;;;;;19.80;15.70;;;2.50;99.90;;;;;;4997235;28;20198;-30
2023/12/01 10:44:38;;;;;;;21.07;15.30;;;2.50;99.90;;;;;;4996931;28;20706;-29
2023/12/01 10:47:05;;;;;;;22.40;16.20;;;2.40;99.90;;;;;;4996924;28;20289;-30
2023/12/01 10:49:34;;;;;;;23.40;17.27;;;2.20;99.90;;;;;;4996711;28;20225;-29
2023/12/01 10:52:01;;;;;;;24.60;17.87;;;2.00;99.90;;;;;;4993076;28;20280;-30
2023/12/01 10:54:28;;;;;;;23.23;17.23;;;2.00;99.90;;;;;;5018768;28;20186;-29
2023/12/01 10:57:19;;;;;;;20.70;16.07;;;2.00;99.90;;;;;;5030593;28;20183;-29
2023/12/01 10:59:50;;;;;;;21.97;15.20;;;1.90;99.90;;;;;;4994948;28;20218;-31
2023/12/01 11:02:17;;;;;;;19.90;15.43;;;2.00;99.90;;;;;;5011964;28;20213;-28
2023/12/01 11:04:45;;;;;;;19.63;15.57;;;2.00;99.90;;;;;;5017206;28;20190;-29
2023/12/01 11:07:13;;;;;;;17.40;14.03;;;2.00;99.90;;;;;;5008712;28;20628;-29
2023/12/01 11:10:02;;;;;;;19.67;14.57;;;2.00;99.90;;;;;;5012951;28;20245;-29
2023/12/01 11:12:38;;;;;;;18.40;14.83;;;2.10;99.90;;;;;;5011400;28;20178;-28
2023/12/01 11:15:23;;;;;;;19.23;15.00;;;2.00;99.90;;;;;;4991779;28;20190;-31
2023/12/01 11:17:50;;;;;;;17.70;13.47;;;2.00;99.90;;;;;;5013085;28;20178;-31
2023/12/01 11:20:30;;;;;;;18.93;14.93;;;2.10;99.90;;;;;;5013270;28;20702;-30
2023/12/01 11:23:09;;;;;;;17.63;13.30;;;2.10;99.90;;;;;;4986484;28;20201;-29
2023/12/01 11:25:50;;;;;;;19.37;15.13;;;2.20;99.90;;;;;;4995675;28;20213;-28
2023/12/01 11:31:35;;;;;;;17.60;13.37;;;2.30;99.90;;;;;;5012566;28;20215;-29
2023/12/01 11:34:08;;;;;;;20.27;15.03;;;2.30;99.90;;;;;;5011223;28;20174;-29
2023/12/01 11:36:36;;;;;;;20.63;15.83;;;2.30;99.90;;;;;;5015798;28;20332;-28
2023/12/01 11:39:16;;;;;;;18.97;15.77;;;2.40;99.90;;;;;;5034319;28;20187;-31
2023/12/01 11:41:42;;;;;;;22.30;15.20;;;2.30;99.90;;;;;;5016736;28;20190;-31
2023/12/01 11:44:14;;;;;;;21.53;16.90;;;2.30;99.90;;;;;;5016571;28;20244;-31
2023/12/01 11:46:40;;;;;;;21.77;16.40;;;2.20;99.90;;;;;;4999180;28;20179;-31
2023/12/01 11:49:06;;;;;;;25.73;17.93;;;2.20;99.90;;;;;;4999960;28;20208;-31
2023/12/01 11:51:33;;;;;;;22.87;16.07;;;2.10;99.90;;;;;;4999904;28;20210;-31
2023/12/01 11:54:01;;;;;;;23.60;17.00;;;2.00;99.90;;;;;;5000259;28;20186;-31
2023/12/01 11:56:29;;;;;;;23.00;17.03;;;2.00;99.90;;;;;;5016421;28;20257;-31
2023/12/01 11:58:56;;;;;;;22.03;16.50;;;2.00;99.90;;;;;;5000156;28;20175;-31
2023/12/01 12:01:22;;;;;;;21.03;15.50;;;2.10;99.90;;;;;;4996206;28;20211;-31
2023/12/01 12:03:55;;;;;;;21.27;16.10;;;2.10;99.90;;;;;;4996702;28;20183;-31
2023/12/01 12:06:22;;;;;;;22.57;16.60;;;2.20;99.90;;;;;;5028779;28;20186;-28
2023/12/01 12:08:48;;;;;;;20.50;15.07;;;2.20;99.90;;;;;;4998339;28;20627;-31
2023/12/01 12:11:15;;;;;;;20.07;14.83;;;2.20;99.90;;;;;;5010857;28;20216;-31
2023/12/01 12:13:41;;;;;;;28.47;18.30;;;2.20;99.90;;;;;;5024570;28;20198;-31
2023/12/01 12:16:07;;;;;;;77.40;37.70;;;2.30;99.90;;;;;;5012036;28;20178;-30
2023/12/01 12:18:34;;;;;;;55.67;28.73;;;2.30;99.90;;;;;;4996598;28;20189;-31
2023/12/01 12:21:04;;;;;;;71.20;33.90;;;2.30;99.90;;;;;;4994258;28;20214;-30
2023/12/01 12:23:31;;;;;;;61.73;29.93;;;2.30;99.90;;;;;;5008641;28;20187;-31
2023/12/01 12:26:26;;;;;;;51.17;26.60;;;2.30;99.90;;;;;;4990802;28;20179;-30
2023/12/01 12:28:55;;;;;;;47.80;25.63;;;2.30;99.90;;;;;;5008561;28;20187;-32
2023/12/01 12:31:25;;;;;;;43.57;22.53;;;2.30;99.90;;;;;;5015679;28;20213;-31
2023/12/01 12:33:59;;;;;;;36.50;23.27;;;2.30;99.90;;;;;;5015449;28;20180;-30
2023/12/01 12:36:26;;;;;;;30.33;22.47;;;2.30;99.90;;;;;;4989164;28;20252;-30
2023/12/01 12:38:53;;;;;;;28.30;20.60;;;2.30;99.90;;;;;;5014687;28;20185;-31
2023/12/01 12:41:29;;;;;;;25.40;19.47;;;2.20;99.90;;;;;;5008837;28;20222;-31
2023/12/01 12:43:57;;;;;;;26.60;19.87;;;2.20;99.90;;;;;;5025181;28;20182;-30